Time;durP1;ratioP1;P1;durP2;ratioP2;P2;SDS_P1;SDS_P2;PMS_P1;PMS_P2;Temp;Humidity;BMP_temperature;BMP_pressure;BME280_temperature;BME280_humidity;BME280_pressure;Samples;Min_cycle;Max_cycle;Signal;HPM_P1;HPM_P2
2024/01/26 09:20:35;;;;;;;19.80;9.50;;;;;;;;;;7354852;19;20491;-41
2024/01/26 09:23:05;;;;;;;18.90;7.50;;;;;;;;;;7379821;19;20470;-37
2024/01/26 09:25:35;;;;;;;23.70;10.97;;;;;;;;;;7357151;19;20390;-41
2024/01/26 09:28:04;;;;;;;13.77;7.03;;;;;;;;;;7377763;19;20399;-40
2024/01/26 09:30:33;;;;;;;18.17;8.40;;;;;;;;;;7355571;19;25295;-42
2024/01/26 09:33:03;;;;;;;30.60;12.40;;;;;;;;;;7379729;19;20442;-43
2024/01/26 09:35:35;;;;;;;28.60;11.70;;;;;;;;;;7355261;19;20480;-43
2024/01/26 09:38:05;;;;;;;20.20;8.63;;;;;;;;;;7378191;19;20403;-40
2024/01/26 09:40:35;;;;;;;19.90;8.17;;;;;;;;;;7354329;19;20401;-42
2024/01/26 09:43:04;;;;;;;22.77;11.03;;;;;;;;;;7378468;19;20425;-43
2024/01/26 09:45:34;;;;;;;22.83;9.70;;;;;;;;;;7356830;19;20444;-43
2024/01/26 09:48:06;;;;;;;25.73;11.73;;;;;;;;;;7378153;19;20944;-41
2024/01/26 09:50:39;;;;;;;36.63;15.20;;;;;;;;;;7357259;19;20402;-40
2024/01/26 09:53:14;;;;;;;12.97;5.70;;;;;;;;;;7379465;19;20435;-43
2024/01/26 09:55:43;;;;;;;27.20;10.90;;;;;;;;;;7357607;19;20404;-39
2024/01/26 09:58:14;;;;;;;29.03;12.20;;;;;;;;;;7378162;19;20968;-45
2024/01/26 10:00:46;;;;;;;10.00;4.73;;;;;;;;;;7356403;19;20460;-42
2024/01/26 10:03:18;;;;;;;19.40;8.73;;;;;;;;;;7358506;19;21347;-40
2024/01/26 10:05:50;;;;;;;15.73;6.17;;;;;;;;;;7377657;19;20453;-45
2024/01/26 10:08:19;;;;;;;19.87;9.07;;;;;;;;;;7356506;19;20790;-39
2024/01/26 10:10:49;;;;;;;11.00;5.53;;;;;;;;;;7373930;19;20417;-40
2024/01/26 10:13:18;;;;;;;19.00;8.60;;;;;;;;;;7357097;19;20432;-40
2024/01/26 10:15:48;;;;;;;37.93;15.70;;;;;;;;;;7377530;19;21131;-39
2024/01/26 10:18:17;;;;;;;16.90;6.70;;;;;;;;;;7355583;19;20411;-41
2024/01/26 10:20:49;;;;;;;12.40;5.70;;;;;;;;;;7379274;19;20467;-46
2024/01/26 10:23:20;;;;;;;12.80;4.50;;;;;;;;;;7356112;19;20518;-39
2024/01/26 10:25:49;;;;;;;19.57;10.10;;;;;;;;;;7377946;19;20402;-39
2024/01/26 10:28:19;;;;;;;13.53;6.30;;;;;;;;;;7354471;19;20432;-40
2024/01/26 10:30:48;;;;;;;48.30;16.23;;;;;;;;;;7361606;19;20415;-37
2024/01/26 10:33:18;;;;;;;64.53;21.60;;;;;;;;;;7325326;19;20461;-42
2024/01/26 10:35:53;;;;;;;21.03;8.30;;;;;;;;;;7348284;19;20485;-39
2024/01/26 10:38:22;;;;;;;8.57;4.83;;;;;;;;;;7327038;19;20463;-38
2024/01/26 10:40:57;;;;;;;16.97;7.30;;;;;;;;;;7348820;19;20473;-39
2024/01/26 10:43:27;;;;;;;20.33;6.07;;;;;;;;;;7326453;19;20425;-42
2024/01/26 10:45:57;;;;;;;18.10;9.70;;;;;;;;;;7348168;19;20416;-41
2024/01/26 10:48:26;;;;;;;14.40;4.07;;;;;;;;;;7326093;19;20489;-39
2024/01/26 10:50:59;;;;;;;12.97;5.10;;;;;;;;;;7348118;19;20417;-42
2024/01/26 10:53:29;;;;;;;17.50;8.50;;;;;;;;;;7326328;19;20430;-43
2024/01/26 10:56:03;;;;;;;23.03;10.73;;;;;;;;;;7347544;19;20410;-38
2024/01/26 10:58:32;;;;;;;14.73;6.60;;;;;;;;;;7322472;19;20449;-43
2024/01/26 11:01:02;;;;;;;11.23;3.97;;;;;;;;;;7345926;19;20421;-40
2024/01/26 11:03:32;;;;;;;19.17;8.47;;;;;;;;;;7322699;19;20423;-44
2024/01/26 11:06:04;;;;;;;10.40;5.53;;;;;;;;;;7347534;19;20538;-42
2024/01/26 11:08:34;;;;;;;15.73;6.63;;;;;;;;;;7324727;19;20441;-41
2024/01/26 11:11:04;;;;;;;15.77;7.13;;;;;;;;;;7349264;19;20435;-41
2024/01/26 11:13:38;;;;;;;15.70;7.47;;;;;;;;;;7326208;19;20441;-42
2024/01/26 11:16:09;;;;;;;10.93;4.27;;;;;;;;;;7347976;19;20484;-46
2024/01/26 11:18:39;;;;;;;11.77;6.30;;;;;;;;;;7325858;19;20406;-40
2024/01/26 11:21:20;;;;;;;9.00;4.50;;;;;;;;;;7346605;19;20405;-42
2024/01/26 11:23:49;;;;;;;9.67;4.77;;;;;;;;;;7326901;19;20944;-42
2024/01/26 11:26:20;;;;;;;6.20;3.50;;;;;;;;;;7324316;19;20481;-43
2024/01/26 11:28:49;;;;;;;11.10;4.70;;;;;;;;;;7347021;19;20409;-42
2024/01/26 11:31:18;;;;;;;9.97;4.10;;;;;;;;;;7325104;19;20414;-40
2024/01/26 11:33:49;;;;;;;10.50;5.23;;;;;;;;;;7345337;19;20398;-40
2024/01/26 11:36:22;;;;;;;8.73;4.63;;;;;;;;;;7324161;19;20494;-41
2024/01/26 11:38:53;;;;;;;4.63;2.80;;;;;;;;;;7347576;19;20941;-40
2024/01/26 11:41:24;;;;;;;7.20;4.03;;;;;;;;;;7324946;19;20516;-40
2024/01/26 11:43:54;;;;;;;3.40;1.97;;;;;;;;;;7345684;19;20405;-43
2024/01/26 11:46:23;;;;;;;3.60;1.93;;;;;;;;;;7323493;19;20413;-43
2024/01/26 11:48:53;;;;;;;4.80;2.90;;;;;;;;;;7347589;19;20422;-40
2024/01/26 11:51:26;;;;;;;5.53;2.60;;;;;;;;;;7324411;19;20413;-42
2024/01/26 11:53:55;;;;;;;2.50;1.20;;;;;;;;;;7346465;19;20403;-40
2024/01/26 11:56:25;;;;;;;9.00;2.47;;;;;;;;;;7323314;19;20430;-41
2024/01/26 11:58:55;;;;;;;11.50;1.63;;;;;;;;;;7346544;19;20478;-41
2024/01/26 12:01:24;;;;;;;10.90;2.30;;;;;;;;;;7314218;19;20427;-49
2024/01/26 12:03:54;;;;;;;6.33;1.50;;;;;;;;;;7346056;19;20949;-51
2024/01/26 12:06:27;;;;;;;11.47;3.00;;;;;;;;;;7321304;19;20436;-52
2024/01/26 12:08:56;;;;;;;14.43;1.87;;;;;;;;;;7345707;19;20406;-50
2024/01/26 12:11:26;;;;;;;10.33;2.53;;;;;;;;;;7322399;19;20405;-52
2024/01/26 12:13:56;;;;;;;15.40;3.57;;;;;;;;;;7344949;19;20969;-49
2024/01/26 12:16:25;;;;;;;17.70;3.10;;;;;;;;;;7321825;19;21006;-51
2024/01/26 12:18:57;;;;;;;12.23;2.67;;;;;;;;;;7345428;19;20497;-51
2024/01/26 12:21:31;;;;;;;23.60;9.43;;;;;;;;;;7319458;19;20465;-52
2024/01/26 12:24:01;;;;;;;27.63;3.80;;;;;;;;;;7343015;19;20399;-55
2024/01/26 12:26:30;;;;;;;8.57;1.93;;;;;;;;;;7321845;19;20425;-53
2024/01/26 12:28:59;;;;;;;16.27;2.90;;;;;;;;;;7345338;19;20439;-49
2024/01/26 12:31:31;;;;;;;11.80;1.80;;;;;;;;;;7323221;19;20457;-54
2024/01/26 12:34:01;;;;;;;21.10;1.90;;;;;;;;;;7344360;19;20405;-49
2024/01/26 12:36:34;;;;;;;24.53;2.50;;;;;;;;;;7319260;19;20418;-54
2024/01/26 12:39:05;;;;;;;12.60;3.53;;;;;;;;;;7343381;19;20818;-48
2024/01/26 12:41:35;;;;;;;11.07;2.40;;;;;;;;;;7321383;19;20396;-49
2024/01/26 12:44:04;;;;;;;25.13;3.30;;;;;;;;;;7344293;19;20426;-49
2024/01/26 12:46:34;;;;;;;14.60;2.03;;;;;;;;;;7320398;19;20789;-48
2024/01/26 12:49:03;;;;;;;8.37;1.30;;;;;;;;;;7344260;19;20458;-53
2024/01/26 12:51:35;;;;;;;21.63;2.50;;;;;;;;;;7320635;19;20473;-52
2024/01/26 12:54:05;;;;;;;16.43;3.07;;;;;;;;;;7342951;19;20517;-50
2024/01/26 12:56:34;;;;;;;13.70;2.17;;;;;;;;;;7321256;19;20407;-48
2024/01/26 12:59:04;;;;;;;22.67;1.87;;;;;;;;;;7344160;19;20403;-49
2024/01/26 13:01:33;;;;;;;16.93;2.83;;;;;;;;;;7319616;19;20470;-48
2024/01/26 13:04:04;;;;;;;18.43;2.50;;;;;;;;;;7342174;19;20410;-49
2024/01/26 13:06:37;;;;;;;12.33;2.67;;;;;;;;;;7320250;19;20455;-49
2024/01/26 13:09:07;;;;;;;19.60;2.33;;;;;;;;;;7343771;19;20451;-51
2024/01/26 13:11:37;;;;;;;8.10;2.00;;;;;;;;;;7320638;19;20437;-49
2024/01/26 13:14:07;;;;;;;16.30;2.83;;;;;;;;;;7343124;19;20778;-52
2024/01/26 13:16:38;;;;;;;13.20;2.00;;;;;;;;;;7320254;19;20406;-53
2024/01/26 13:19:07;;;;;;;10.50;1.70;;;;;;;;;;7342923;19;20393;-53
2024/01/26 13:21:39;;;;;;;6.03;1.33;;;;;;;;;;7320137;19;20483;-48
2024/01/26 13:24:09;;;;;;;19.10;3.07;;;;;;;;;;7342797;19;20419;-50
2024/01/26 13:26:39;;;;;;;9.70;2.30;;;;;;;;;;7320873;19;20965;-49
2024/01/26 13:29:09;;;;;;;19.97;3.83;;;;;;;;;;7342810;19;20775;-50
2024/01/26 13:31:38;;;;;;;7.63;1.83;;;;;;;;;;7320291;19;20414;-53
2024/01/26 13:34:07;;;;;;;14.10;3.50;;;;;;;;;;7342248;19;20412;-50
2024/01/26 13:36:41;;;;;;;14.33;2.10;;;;;;;;;;7319441;19;20403;-49
2024/01/26 13:39:13;;;;;;;16.97;2.00;;;;;;;;;;7342163;19;20405;-49
2024/01/26 13:41:43;;;;;;;10.87;2.80;;;;;;;;;;7321998;19;20786;-54
2024/01/26 13:44:10;;;;;;;9.47;2.60;;;;;;;;;;7342428;19;20925;-52
2024/01/26 13:46:39;;;;;;;7.77;1.97;;;;;;;;;;7321296;19;20401;-51
2024/01/26 13:49:09;;;;;;;13.43;1.93;;;;;;;;;;7343088;19;20469;-49
2024/01/26 13:51:41;;;;;;;10.70;2.37;;;;;;;;;;7319459;19;20402;-52
2024/01/26 13:54:10;;;;;;;21.77;2.47;;;;;;;;;;7341997;19;20406;-53
2024/01/26 13:56:40;;;;;;;15.33;2.07;;;;;;;;;;7319716;19;20819;-52
2024/01/26 13:59:09;;;;;;;11.33;1.90;;;;;;;;;;7341516;19;20405;-51
2024/01/26 14:01:38;;;;;;;18.83;2.87;;;;;;;;;;7318370;19;20385;-50
2024/01/26 14:04:08;;;;;;;8.50;2.27;;;;;;;;;;7341305;19;20405;-47
2024/01/26 14:06:40;;;;;;;10.90;1.43;;;;;;;;;;7323665;19;20429;-50
2024/01/26 14:09:10;;;;;;;7.00;2.57;;;;;;;;;;7347810;19;20425;-49
2024/01/26 14:11:39;;;;;;;7.90;1.40;;;;;;;;;;7326445;19;20827;-49
2024/01/26 14:14:09;;;;;;;9.00;1.93;;;;;;;;;;7348650;19;20384;-50
2024/01/26 14:16:38;;;;;;;9.83;2.50;;;;;;;;;;7325418;19;20473;-52
2024/01/26 14:19:08;;;;;;;8.00;1.70;;;;;;;;;;7349668;19;20997;-51
2024/01/26 14:21:37;;;;;;;16.57;3.93;;;;;;;;;;7325732;19;20409;-51
2024/01/26 14:24:09;;;;;;;13.00;3.27;;;;;;;;;;7348928;19;20428;-50
2024/01/26 14:26:39;;;;;;;14.70;3.80;;;;;;;;;;7325765;19;20985;-49
2024/01/26 14:29:12;;;;;;;8.80;2.00;;;;;;;;;;7348031;19;20405;-50
2024/01/26 14:31:42;;;;;;;21.20;2.57;;;;;;;;;;7326917;19;20484;-48
2024/01/26 14:34:11;;;;;;;18.93;2.20;;;;;;;;;;7347583;19;20528;-48
2024/01/26 14:36:42;;;;;;;18.63;2.50;;;;;;;;;;7326230;19;20394;-50
2024/01/26 14:39:14;;;;;;;6.10;1.83;;;;;;;;;;7347911;19;20392;-51
2024/01/26 14:41:44;;;;;;;10.83;3.13;;;;;;;;;;7326156;19;20405;-50
2024/01/26 14:44:13;;;;;;;13.40;2.43;;;;;;;;;;7348118;19;20418;-47
2024/01/26 14:46:43;;;;;;;20.03;2.50;;;;;;;;;;7325834;19;20759;-48
2024/01/26 14:49:12;;;;;;;18.27;2.00;;;;;;;;;;7347559;19;20473;-49
2024/01/26 14:51:42;;;;;;;13.80;2.87;;;;;;;;;;7326309;19;20786;-49
2024/01/26 14:54:15;;;;;;;12.93;2.33;;;;;;;;;;7347209;19;20409;-49
2024/01/26 14:56:44;;;;;;;16.17;2.57;;;;;;;;;;7325475;19;20728;-49
2024/01/26 14:59:14;;;;;;;21.93;2.60;;;;;;;;;;7346786;19;20412;-50
2024/01/26 15:01:43;;;;;;;17.87;2.20;;;;;;;;;;7325110;19;20401;-49
2024/01/26 15:04:12;;;;;;;13.37;3.13;;;;;;;;;;7348178;19;20419;-50
2024/01/26 15:06:42;;;;;;;14.07;1.97;;;;;;;;;;7324864;19;20933;-49
2024/01/26 15:09:15;;;;;;;18.63;2.40;;;;;;;;;;7346780;19;20403;-51
2024/01/26 15:11:46;;;;;;;12.40;2.23;;;;;;;;;;7326853;19;20401;-49
2024/01/26 15:14:15;;;;;;;17.70;3.60;;;;;;;;;;7334975;19;20484;-47
2024/01/26 15:16:45;;;;;;;14.70;3.53;;;;;;;;;;7345753;19;20429;-48
2024/01/26 15:19:11;;;;;;;37.27;4.50;;;;;;;;;;7346511;19;20401;-47
2024/01/26 15:21:41;;;;;;;12.97;2.80;;;;;;;;;;7325330;19;20405;-48
2024/01/26 15:24:11;;;;;;;24.07;4.13;;;;;;;;;;7346601;19;20439;-48
2024/01/26 15:26:44;;;;;;;19.23;2.47;;;;;;;;;;7325150;19;20398;-47
2024/01/26 15:29:14;;;;;;;25.17;3.97;;;;;;;;;;7346947;19;20431;-48
2024/01/26 15:31:43;;;;;;;16.90;2.60;;;;;;;;;;7325329;19;20998;-49
2024/01/26 15:34:12;;;;;;;27.07;3.63;;;;;;;;;;7344225;19;20439;-48
2024/01/26 15:36:42;;;;;;;10.37;1.53;;;;;;;;;;7324806;19;20496;-48
2024/01/26 15:39:12;;;;;;;38.13;5.77;;;;;;;;;;7346208;19;20434;-50
2024/01/26 15:41:41;;;;;;;26.70;4.17;;;;;;;;;;7325053;19;20398;-48
2024/01/26 15:44:15;;;;;;;27.43;3.23;;;;;;;;;;7345584;19;20402;-49
2024/01/26 15:46:45;;;;;;;23.10;3.57;;;;;;;;;;7324555;19;20947;-47
2024/01/26 15:49:14;;;;;;;17.20;2.90;;;;;;;;;;7347819;19;20448;-49
2024/01/26 15:51:44;;;;;;;11.23;1.83;;;;;;;;;;7325397;19;20402;-48
2024/01/26 15:54:13;;;;;;;26.77;3.47;;;;;;;;;;7345813;19;21008;-49
2024/01/26 15:56:43;;;;;;;14.80;2.30;;;;;;;;;;7323847;19;20377;-51
2024/01/26 15:59:16;;;;;;;17.13;2.10;;;;;;;;;;7345799;19;20514;-48
2024/01/26 16:01:46;;;;;;;16.17;2.83;;;;;;;;;;7324354;19;20401;-50
2024/01/26 16:04:15;;;;;;;12.07;1.63;;;;;;;;;;7336340;19;20405;-50
2024/01/26 16:06:45;;;;;;;14.40;3.30;;;;;;;;;;7344685;19;20789;-48
2024/01/26 16:09:18;;;;;;;17.90;2.50;;;;;;;;;;7322054;19;20409;-48
2024/01/26 16:11:48;;;;;;;11.13;2.83;;;;;;;;;;7344663;19;20414;-48
2024/01/26 16:14:20;;;;;;;20.83;3.07;;;;;;;;;;7322148;19;20457;-49
2024/01/26 16:16:50;;;;;;;23.93;4.60;;;;;;;;;;7344444;19;20441;-51
2024/01/26 16:19:19;;;;;;;11.40;3.50;;;;;;;;;;7322915;19;20476;-47
2024/01/26 16:21:49;;;;;;;22.73;2.53;;;;;;;;;;7344771;19;21071;-47
2024/01/26 16:24:18;;;;;;;18.30;3.10;;;;;;;;;;7321420;19;21057;-50
2024/01/26 16:26:48;;;;;;;22.60;5.07;;;;;;;;;;7344537;19;20422;-48
2024/01/26 16:29:17;;;;;;;22.17;3.20;;;;;;;;;;7320418;19;20984;-47
2024/01/26 16:31:49;;;;;;;23.40;4.00;;;;;;;;;;7344589;19;20792;-48
2024/01/26 16:34:19;;;;;;;31.00;4.63;;;;;;;;;;7319985;19;20387;-47
2024/01/26 16:36:48;;;;;;;28.10;3.40;;;;;;;;;;7343204;19;20406;-50
2024/01/26 16:39:18;;;;;;;15.63;3.20;;;;;;;;;;7320345;19;20428;-52
2024/01/26 16:41:58;;;;;;;12.17;2.57;;;;;;;;;;7345311;19;20966;-49
2024/01/26 16:44:27;;;;;;;32.73;5.80;;;;;;;;;;7321908;19;20508;-50
2024/01/26 16:46:59;;;;;;;21.87;3.50;;;;;;;;;;7344759;19;20409;-49
2024/01/26 16:49:29;;;;;;;21.77;3.60;;;;;;;;;;7321947;19;20421;-49
2024/01/26 16:52:01;;;;;;;30.33;4.23;;;;;;;;;;7344126;19;20415;-48
2024/01/26 16:54:31;;;;;;;17.57;3.13;;;;;;;;;;7321465;19;20489;-51
2024/01/26 16:57:01;;;;;;;17.00;3.43;;;;;;;;;;7342928;19;20415;-52
2024/01/26 16:59:31;;;;;;;19.07;3.23;;;;;;;;;;7321382;19;20428;-49
2024/01/26 17:02:03;;;;;;;26.27;4.47;;;;;;;;;;7343566;19;20405;-47
2024/01/26 17:04:32;;;;;;;17.60;3.07;;;;;;;;;;7320299;19;20445;-49
2024/01/26 17:07:02;;;;;;;56.00;15.13;;;;;;;;;;7343938;19;20778;-50
2024/01/26 17:09:32;;;;;;;33.23;5.70;;;;;;;;;;7322196;19;20426;-50
2024/01/26 17:12:01;;;;;;;25.57;3.93;;;;;;;;;;7343412;19;20414;-49
2024/01/26 17:14:31;;;;;;;34.37;4.47;;;;;;;;;;7320962;19;20413;-51
2024/01/26 17:17:04;;;;;;;31.33;5.10;;;;;;;;;;7343112;19;20460;-47
2024/01/26 17:19:34;;;;;;;17.93;4.40;;;;;;;;;;7321048;19;20455;-47
2024/01/26 17:22:04;;;;;;;32.83;2.87;;;;;;;;;;7342834;19;20406;-47
2024/01/26 17:24:33;;;;;;;14.67;3.30;;;;;;;;;;7320975;19;21110;-50
2024/01/26 17:27:02;;;;;;;20.53;3.33;;;;;;;;;;7342605;19;20433;-48
2024/01/26 17:29:32;;;;;;;13.80;2.20;;;;;;;;;;7320853;19;20414;-48
2024/01/26 17:32:04;;;;;;;23.97;3.30;;;;;;;;;;7344162;19;20417;-48
2024/01/26 17:34:34;;;;;;;35.73;4.77;;;;;;;;;;7318829;19;20438;-48
2024/01/26 17:37:04;;;;;;;28.17;3.83;;;;;;;;;;7342800;19;20417;-48
2024/01/26 17:39:33;;;;;;;30.00;5.07;;;;;;;;;;7320228;19;20462;-49
2024/01/26 17:42:04;;;;;;;21.50;5.50;;;;;;;;;;7349914;19;20406;-50
2024/01/26 17:44:33;;;;;;;33.50;4.67;;;;;;;;;;7326151;19;20459;-49
2024/01/26 17:47:05;;;;;;;28.13;3.80;;;;;;;;;;7348851;19;20406;-48
2024/01/26 17:49:35;;;;;;;45.27;8.03;;;;;;;;;;7326937;19;20406;-47
2024/01/26 17:52:04;;;;;;;18.43;3.17;;;;;;;;;;7350088;19;20483;-48
2024/01/26 17:54:34;;;;;;;21.07;4.30;;;;;;;;;;7326901;19;20544;-47
2024/01/26 17:57:04;;;;;;;24.43;4.33;;;;;;;;;;7348747;19;20417;-48
2024/01/26 17:59:33;;;;;;;35.87;4.70;;;;;;;;;;7327200;19;21367;-50
2024/01/26 18:02:07;;;;;;;28.03;3.90;;;;;;;;;;7349434;19;20780;-49
2024/01/26 18:04:36;;;;;;;25.30;2.97;;;;;;;;;;7325793;19;20440;-48
2024/01/26 18:07:06;;;;;;;23.30;4.53;;;;;;;;;;7348240;19;21102;-48
2024/01/26 18:09:35;;;;;;;25.23;3.60;;;;;;;;;;7326991;19;20393;-47
2024/01/26 18:12:05;;;;;;;17.23;2.80;;;;;;;;;;7348440;19;20949;-50
2024/01/26 18:14:34;;;;;;;19.87;2.70;;;;;;;;;;7326628;19;22455;-48
2024/01/26 18:17:06;;;;;;;21.67;2.80;;;;;;;;;;7348122;19;20431;-48
2024/01/26 18:19:36;;;;;;;14.53;3.07;;;;;;;;;;7326176;19;20461;-51
2024/01/26 18:22:05;;;;;;;30.63;3.93;;;;;;;;;;7348347;19;20402;-49
2024/01/26 18:24:35;;;;;;;28.57;3.90;;;;;;;;;;7325734;19;20997;-47
2024/01/26 18:27:04;;;;;;;41.33;4.00;;;;;;;;;;7348210;19;20415;-50
2024/01/26 18:29:34;;;;;;;23.33;4.17;;;;;;;;;;7326002;19;20929;-50
2024/01/26 18:32:03;;;;;;;16.50;2.87;;;;;;;;;;7349128;19;20409;-48
2024/01/26 18:34:35;;;;;;;24.47;5.10;;;;;;;;;;7323825;19;20810;-50
2024/01/26 18:37:05;;;;;;;37.60;6.83;;;;;;;;;;7347484;19;20434;-49
2024/01/26 18:39:31;;;;;;;19.10;2.93;;;;;;;;;;7325122;19;20453;-48
2024/01/26 18:42:01;;;;;;;24.97;3.50;;;;;;;;;;7348334;19;20413;-49
2024/01/26 18:44:31;;;;;;;22.17;3.30;;;;;;;;;;7324747;19;20425;-49
2024/01/26 18:47:00;;;;;;;22.67;3.10;;;;;;;;;;7348209;19;20804;-49
2024/01/26 18:49:31;;;;;;;36.90;4.13;;;;;;;;;;7324799;19;20822;-50
2024/01/26 18:52:04;;;;;;;30.83;3.63;;;;;;;;;;7346939;19;20438;-52
2024/01/26 18:54:33;;;;;;;22.83;3.20;;;;;;;;;;7325112;19;20462;-49
2024/01/26 18:57:03;;;;;;;31.73;3.90;;;;;;;;;;7345490;19;21001;-48
2024/01/26 18:59:33;;;;;;;19.50;4.07;;;;;;;;;;7326564;19;20426;-51
2024/01/26 19:02:03;;;;;;;25.63;4.17;;;;;;;;;;7347668;19;21250;-49
2024/01/26 19:04:34;;;;;;;16.47;2.30;;;;;;;;;;7323593;19;20438;-52
2024/01/26 19:07:08;;;;;;;21.43;3.40;;;;;;;;;;7347884;19;20769;-50
2024/01/26 19:09:37;;;;;;;32.87;5.10;;;;;;;;;;7324757;19;20399;-52
2024/01/26 19:12:08;;;;;;;12.10;3.00;;;;;;;;;;7347140;19;20418;-50
2024/01/26 19:14:39;;;;;;;15.10;3.17;;;;;;;;;;7323813;19;20466;-48
2024/01/26 19:17:10;;;;;;;31.13;4.93;;;;;;;;;;7346876;19;20421;-48
2024/01/26 19:19:44;;;;;;;12.97;3.30;;;;;;;;;;7324604;19;20764;-51
2024/01/26 19:22:16;;;;;;;25.57;3.60;;;;;;;;;;7346711;19;20406;-48
2024/01/26 19:24:45;;;;;;;25.23;4.07;;;;;;;;;;7325509;19;20418;-47
2024/01/26 19:27:15;;;;;;;7.93;1.50;;;;;;;;;;7341503;19;20426;-48
2024/01/26 19:29:45;;;;;;;19.10;3.97;;;;;;;;;;7346731;19;20394;-51
2024/01/26 19:32:15;;;;;;;19.83;3.50;;;;;;;;;;7346760;19;20469;-48
2024/01/26 19:34:45;;;;;;;19.37;3.10;;;;;;;;;;7323820;19;20979;-50
2024/01/26 19:37:17;;;;;;;20.70;3.47;;;;;;;;;;7346293;19;20431;-52
2024/01/26 19:39:46;;;;;;;38.13;7.80;;;;;;;;;;7325049;19;20752;-50
2024/01/26 19:42:16;;;;;;;32.03;4.47;;;;;;;;;;7334460;19;20434;-49
2024/01/26 19:44:45;;;;;;;22.63;3.30;;;;;;;;;;7345641;19;20403;-48
2024/01/26 19:47:17;;;;;;;24.90;3.20;;;;;;;;;;7343446;19;20414;-50
2024/01/26 19:49:47;;;;;;;16.40;3.13;;;;;;;;;;7347971;19;20466;-49
2024/01/26 19:52:19;;;;;;;24.10;3.50;;;;;;;;;;7325540;19;20418;-49
2024/01/26 19:54:49;;;;;;;23.40;4.73;;;;;;;;;;7345609;19;20398;-48
2024/01/26 19:57:19;;;;;;;17.60;2.80;;;;;;;;;;7321715;19;20492;-52
2024/01/26 19:59:48;;;;;;;29.97;4.20;;;;;;;;;;7345640;19;20402;-49
2024/01/26 20:02:18;;;;;;;30.57;3.40;;;;;;;;;;7320762;19;20434;-50
2024/01/26 20:04:48;;;;;;;18.13;2.77;;;;;;;;;;7342972;19;20495;-50
2024/01/26 20:07:22;;;;;;;38.17;5.20;;;;;;;;;;7322117;19;20438;-50
2024/01/26 20:09:51;;;;;;;19.77;4.10;;;;;;;;;;7346304;19;20474;-49
2024/01/26 20:12:23;;;;;;;18.03;3.30;;;;;;;;;;7322099;19;20402;-49
2024/01/26 20:14:53;;;;;;;26.23;3.70;;;;;;;;;;7345193;19;20405;-48
2024/01/26 20:17:25;;;;;;;22.87;3.40;;;;;;;;;;7321827;19;20426;-49
2024/01/26 20:19:55;;;;;;;14.90;2.43;;;;;;;;;;7344838;19;20401;-50
2024/01/26 20:22:29;;;;;;;11.53;2.67;;;;;;;;;;7321998;19;20503;-49
2024/01/26 20:24:59;;;;;;;39.43;5.03;;;;;;;;;;7344763;19;20406;-49
2024/01/26 20:27:29;;;;;;;11.83;3.57;;;;;;;;;;7321392;19;20950;-49
2024/01/26 20:29:59;;;;;;;25.63;4.47;;;;;;;;;;7345533;19;20414;-50
2024/01/26 20:32:29;;;;;;;23.60;3.27;;;;;;;;;;7322458;19;20416;-47
2024/01/26 20:34:59;;;;;;;23.77;4.03;;;;;;;;;;7344009;19;20411;-49
2024/01/26 20:37:31;;;;;;;15.93;3.67;;;;;;;;;;7321377;19;21000;-48
2024/01/26 20:40:03;;;;;;;20.83;3.30;;;;;;;;;;7344273;19;20452;-48
2024/01/26 20:42:32;;;;;;;23.70;3.47;;;;;;;;;;7321872;19;21036;-47
2024/01/26 20:45:03;;;;;;;46.33;7.70;;;;;;;;;;7344540;19;20464;-47
2024/01/26 20:47:33;;;;;;;20.37;4.10;;;;;;;;;;7319599;19;20482;-48
2024/01/26 20:50:02;;;;;;;27.63;3.90;;;;;;;;;;7343946;19;20430;-52
2024/01/26 20:52:34;;;;;;;36.00;5.37;;;;;;;;;;7321843;19;20429;-48
2024/01/26 20:55:04;;;;;;;22.27;2.70;;;;;;;;;;7344254;19;20425;-47
2024/01/26 20:57:33;;;;;;;24.23;3.27;;;;;;;;;;7320897;19;20440;-52
2024/01/26 21:00:03;;;;;;;14.13;2.90;;;;;;;;;;7343539;19;20436;-53
2024/01/26 21:02:33;;;;;;;27.27;6.50;;;;;;;;;;7321258;19;20438;-50
2024/01/26 21:05:02;;;;;;;28.10;3.07;;;;;;;;;;7340658;19;20414;-53
2024/01/26 21:07:35;;;;;;;57.43;10.20;;;;;;;;;;7321150;19;20441;-50
2024/01/26 21:10:02;;;;;;;35.40;3.50;;;;;;;;;;7345020;19;20503;-49
2024/01/26 21:13:37;;;;;;;46.40;9.50;;;;;;;;;;7355937;19;20539;-53
2024/01/26 21:16:07;;;;;;;27.80;6.77;;;;;;;;;;7378210;19;20436;-53
2024/01/26 21:18:36;;;;;;;34.23;7.37;;;;;;;;;;7356154;19;20414;-53
2024/01/26 21:21:06;;;;;;;15.63;3.90;;;;;;;;;;7378969;19;20429;-52
2024/01/26 21:23:36;;;;;;;24.47;3.30;;;;;;;;;;7355291;19;20429;-53
2024/01/26 21:26:05;;;;;;;26.33;4.07;;;;;;;;;;7369298;19;20503;-53
2024/01/26 21:28:37;;;;;;;15.23;3.30;;;;;;;;;;7333485;19;20429;-53
2024/01/26 21:31:06;;;;;;;23.07;3.13;;;;;;;;;;7378482;19;20425;-51
2024/01/26 21:33:36;;;;;;;58.57;14.13;;;;;;;;;;7352920;19;20437;-52
2024/01/26 21:36:06;;;;;;;15.50;4.27;;;;;;;;;;7378042;19;21027;-53
2024/01/26 21:38:35;;;;;;;24.10;3.53;;;;;;;;;;7355484;19;20434;-57
2024/01/26 21:41:05;;;;;;;29.40;3.10;;;;;;;;;;7377710;19;20528;-53
2024/01/26 21:43:38;;;;;;;19.00;3.10;;;;;;;;;;7356104;19;20468;-55
2024/01/26 21:46:07;;;;;;;25.73;5.00;;;;;;;;;;7377755;19;20424;-55
2024/01/26 21:48:37;;;;;;;28.23;4.43;;;;;;;;;;7355278;19;20413;-56
2024/01/26 21:51:06;;;;;;;26.90;4.43;;;;;;;;;;7378940;19;20816;-53
2024/01/26 21:53:36;;;;;;;19.00;3.70;;;;;;;;;;7354374;19;20414;-54
2024/01/26 21:56:06;;;;;;;40.70;10.70;;;;;;;;;;7377336;19;20432;-56
2024/01/26 21:58:38;;;;;;;47.90;11.57;;;;;;;;;;7355914;19;20393;-51
2024/01/26 22:01:12;;;;;;;17.83;3.23;;;;;;;;;;7377352;19;20428;-54
2024/01/26 22:03:42;;;;;;;52.77;12.00;;;;;;;;;;7356619;19;20421;-52
2024/01/26 22:06:11;;;;;;;32.43;4.00;;;;;;;;;;7377849;19;20807;-56
2024/01/26 22:08:41;;;;;;;31.40;4.87;;;;;;;;;;7357384;19;20525;-51
2024/01/26 22:11:12;;;;;;;28.37;4.80;;;;;;;;;;7377695;19;20429;-53
2024/01/26 22:13:44;;;;;;;41.07;4.90;;;;;;;;;;7355827;19;20516;-52
2024/01/26 22:16:14;;;;;;;27.23;6.03;;;;;;;;;;7378478;19;20525;-52
2024/01/26 22:18:43;;;;;;;19.73;3.33;;;;;;;;;;7355779;19;20431;-56
2024/01/26 22:21:13;;;;;;;22.63;4.20;;;;;;;;;;7377220;19;20436;-57
2024/01/26 22:23:43;;;;;;;20.23;3.10;;;;;;;;;;7341924;19;20444;-54
2024/01/26 22:26:12;;;;;;;29.83;4.80;;;;;;;;;;7348198;19;20434;-52
2024/01/26 22:28:44;;;;;;;24.57;3.37;;;;;;;;;;7326817;19;20927;-56
2024/01/26 22:31:14;;;;;;;28.00;3.63;;;;;;;;;;7348722;19;20462;-55
2024/01/26 22:33:43;;;;;;;33.37;5.67;;;;;;;;;;7325634;19;20430;-54
2024/01/26 22:36:13;;;;;;;39.63;7.50;;;;;;;;;;7348109;19;20515;-52
2024/01/26 22:38:42;;;;;;;18.60;3.30;;;;;;;;;;7326999;19;20435;-54
2024/01/26 22:41:12;;;;;;;29.30;3.77;;;;;;;;;;7347928;19;20429;-55
2024/01/26 22:43:42;;;;;;;21.37;4.17;;;;;;;;;;7327335;19;20440;-56
2024/01/26 22:46:14;;;;;;;17.23;3.70;;;;;;;;;;7347912;19;20437;-51
2024/01/26 22:48:44;;;;;;;30.70;4.57;;;;;;;;;;7326502;19;20426;-54
2024/01/26 22:51:16;;;;;;;24.20;2.67;;;;;;;;;;7349085;19;20441;-55
2024/01/26 22:53:45;;;;;;;21.50;2.97;;;;;;;;;;7326356;19;20429;-53
2024/01/26 22:56:15;;;;;;;28.23;2.70;;;;;;;;;;7347099;19;20827;-53
2024/01/26 22:58:44;;;;;;;18.63;3.20;;;;;;;;;;7326359;19;20974;-49
2024/01/26 23:01:16;;;;;;;21.40;4.13;;;;;;;;;;7348497;19;20768;-52
2024/01/26 23:03:46;;;;;;;23.73;3.63;;;;;;;;;;7326150;19;20409;-53
2024/01/26 23:06:20;;;;;;;35.00;4.70;;;;;;;;;;7336164;19;20959;-53
2024/01/26 23:08:50;;;;;;;39.97;7.13;;;;;;;;;;7348935;19;20438;-54
2024/01/26 23:11:20;;;;;;;30.33;4.47;;;;;;;;;;7323801;19;20430;-50
2024/01/26 23:13:50;;;;;;;32.03;4.50;;;;;;;;;;7346754;19;20448;-53
2024/01/26 23:16:22;;;;;;;24.73;3.23;;;;;;;;;;7323583;19;20437;-57
2024/01/26 23:18:53;;;;;;;18.73;3.20;;;;;;;;;;7346842;19;20438;-54
2024/01/26 23:21:22;;;;;;;30.27;3.93;;;;;;;;;;7324301;19;20430;-54
2024/01/26 23:23:52;;;;;;;23.87;4.43;;;;;;;;;;7347329;19;20976;-54
2024/01/26 23:26:21;;;;;;;30.33;3.77;;;;;;;;;;7323117;19;20430;-55
2024/01/26 23:28:51;;;;;;;40.23;7.40;;;;;;;;;;7345919;19;20574;-54
2024/01/26 23:31:23;;;;;;;39.40;7.53;;;;;;;;;;7323354;19;20798;-57
2024/01/26 23:33:52;;;;;;;17.73;3.43;;;;;;;;;;7343247;19;20429;-54
2024/01/26 23:36:22;;;;;;;24.67;3.70;;;;;;;;;;7319511;19;20442;-53
2024/01/26 23:38:52;;;;;;;19.97;3.00;;;;;;;;;;7346098;19;20431;-51
2024/01/26 23:41:22;;;;;;;25.93;4.23;;;;;;;;;;7322465;19;20972;-53
2024/01/26 23:43:55;;;;;;;23.10;3.20;;;;;;;;;;7346011;19;20508;-55
2024/01/26 23:46:27;;;;;;;24.57;6.13;;;;;;;;;;7322498;19;20462;-56
2024/01/26 23:48:56;;;;;;;29.10;4.67;;;;;;;;;;7346060;19;20413;-53
2024/01/26 23:51:26;;;;;;;15.37;2.83;;;;;;;;;;7322467;19;20434;-55
2024/01/26 23:53:55;;;;;;;19.77;3.17;;;;;;;;;;7344604;19;20448;-53
2024/01/26 23:56:25;;;;;;;28.70;3.77;;;;;;;;;;7325333;19;20446;-52
2024/01/26 23:58:54;;;;;;;22.70;4.77;;;;;;;;;;7347955;19;20508;-56
